createdAt,value
2023-02-16T00:00:58.161Z,50.852650
2023-02-16T00:01:58.258Z,50.852562
2023-02-16T00:02:58.088Z,50.852585
2023-02-16T00:03:58.091Z,50.852566
2023-02-16T00:04:58.097Z,50.852619
2023-02-16T00:05:58.068Z,50.852604
2023-02-16T00:06:58.078Z,50.852501
2023-02-16T00:07:58.052Z,50.852512
2023-02-16T00:08:58.071Z,50.852589
2023-02-16T00:09:58.044Z,50.852520
2023-02-16T00:10:58.052Z,50.852650
2023-02-16T00:11:58.042Z,50.852764
2023-02-16T00:12:58.043Z,50.852760
2023-02-16T00:13:58.015Z,50.852570
2023-02-16T00:14:58.016Z,50.852615
2023-02-16T00:15:58.042Z,50.852703
2023-02-16T00:16:58.016Z,50.852608
2023-02-16T00:17:58.003Z,50.852776
2023-02-16T00:18:57.987Z,50.852898
2023-02-16T00:19:57.974Z,50.852699
2023-02-16T00:20:57.972Z,50.852516
2023-02-16T00:21:57.969Z,50.852463
2023-02-16T00:22:57.965Z,50.852413
2023-02-16T00:23:57.968Z,50.853111
2023-02-16T00:24:57.946Z,50.853146
2023-02-16T00:25:57.934Z,50.852901
2023-02-16T00:26:57.990Z,50.852886
2023-02-16T00:27:57.934Z,50.852776
2023-02-16T00:28:57.924Z,50.852772
2023-02-16T00:29:57.979Z,50.852837
2023-02-16T00:30:58.013Z,50.852905
2023-02-16T00:31:58.016Z,50.853027
2023-02-16T00:32:57.927Z,50.853088
2023-02-16T00:33:57.908Z,50.853008
2023-02-16T00:34:57.912Z,50.853008
2023-02-16T00:35:57.876Z,50.852776
2023-02-16T00:36:57.890Z,50.852772
2023-02-16T00:37:57.868Z,50.852707
2023-02-16T00:38:57.878Z,50.852608
2023-02-16T00:39:57.889Z,50.852608
2023-02-16T00:40:57.872Z,50.852623
2023-02-16T00:41:57.849Z,50.852814
2023-02-16T00:42:57.866Z,50.852814
2023-02-16T00:43:57.826Z,50.852814
2023-02-16T00:44:57.827Z,50.852814
2023-02-16T00:45:57.833Z,50.852814
2023-02-16T00:46:57.844Z,50.852814
2023-02-16T00:47:57.812Z,50.852814
2023-02-16T00:48:57.793Z,50.852814
2023-02-16T00:49:57.776Z,50.852814
2023-02-16T00:50:57.793Z,50.852814
2023-02-16T00:51:57.806Z,50.852875
2023-02-16T00:52:57.789Z,50.852779
2023-02-16T00:53:57.763Z,50.852882
2023-02-16T00:54:57.773Z,50.852802
2023-02-16T00:55:57.733Z,50.852730
2023-02-16T00:56:57.769Z,50.852730
2023-02-16T00:57:57.720Z,50.852730
2023-02-16T00:58:57.727Z,50.852730
2023-02-16T00:59:57.716Z,50.852730
2023-02-16T01:00:57.728Z,50.852730
2023-02-16T01:01:57.803Z,50.852730
2023-02-16T01:02:57.704Z,50.852730
2023-02-16T01:03:57.692Z,50.852730
2023-02-16T01:04:57.692Z,50.852730
2023-02-16T01:05:57.677Z,50.852730
2023-02-16T01:06:57.680Z,50.852726
2023-02-16T01:07:57.656Z,50.852749
2023-02-16T01:08:57.662Z,50.852718
2023-02-16T01:09:57.652Z,50.852680
2023-02-16T01:10:57.634Z,50.852680
2023-02-16T01:11:57.630Z,50.852673
2023-02-16T01:12:57.653Z,50.852680
2023-02-16T01:13:57.620Z,50.852676
2023-02-16T01:14:57.607Z,50.852657
2023-02-16T01:15:57.646Z,50.852722
2023-02-16T01:16:57.630Z,50.852711
2023-02-16T01:17:57.589Z,50.852627
2023-02-16T01:18:57.577Z,50.852566
2023-02-16T01:19:57.599Z,50.852444
2023-02-16T01:20:57.604Z,50.852436
2023-02-16T01:21:57.558Z,50.852436
2023-02-16T01:22:57.576Z,50.852436
2023-02-16T01:23:57.567Z,50.852436
2023-02-16T01:24:57.538Z,50.852436
2023-02-16T01:25:57.546Z,50.852436
2023-02-16T01:26:57.540Z,50.852436
2023-02-16T01:27:57.538Z,50.852436
2023-02-16T01:28:57.529Z,50.852436
2023-02-16T01:29:57.538Z,50.852436
2023-02-16T01:30:57.630Z,50.852436
2023-02-16T01:31:57.606Z,50.852436
2023-02-16T01:32:57.491Z,50.852436
2023-02-16T01:33:57.510Z,50.852436
2023-02-16T01:34:57.499Z,50.852436
2023-02-16T01:35:57.471Z,50.852436
2023-02-16T01:36:57.472Z,50.852436
2023-02-16T01:37:57.474Z,50.852436
2023-02-16T01:38:57.451Z,50.852436
2023-02-16T01:39:57.448Z,50.852436
2023-02-16T01:40:57.448Z,50.852436
2023-02-16T01:41:57.427Z,50.852436
2023-02-16T01:42:57.451Z,50.852436
2023-02-16T01:43:57.463Z,50.852436
2023-02-16T01:44:57.410Z,50.852436
2023-02-16T01:45:57.399Z,50.852436
2023-02-16T01:46:57.414Z,50.852436
2023-02-16T01:47:57.384Z,50.852436
2023-02-16T01:48:57.393Z,50.852436
2023-02-16T01:49:57.431Z,50.852436
2023-02-16T01:50:57.379Z,50.852436
2023-02-16T01:51:57.365Z,50.852436
2023-02-16T01:52:57.361Z,50.852436
2023-02-16T01:53:57.354Z,50.852436
2023-02-16T01:54:57.351Z,50.852436
2023-02-16T01:55:57.379Z,50.852436
2023-02-16T01:56:57.348Z,50.852436
2023-02-16T01:57:57.334Z,50.852436
2023-02-16T01:58:57.327Z,50.852436
2023-02-16T01:59:57.321Z,50.852436
2023-02-16T02:00:57.329Z,50.852436
2023-02-16T02:01:57.367Z,50.852436
2023-02-16T02:02:57.370Z,50.852436
2023-02-16T02:03:57.290Z,50.852436
2023-02-16T02:04:57.298Z,50.852436
2023-02-16T02:05:57.284Z,50.852436
2023-02-16T02:06:57.297Z,50.852436
2023-02-16T02:07:57.275Z,50.852436
2023-02-16T02:08:57.276Z,50.852436
2023-02-16T02:09:57.275Z,50.852436
2023-02-16T02:10:57.264Z,50.852436
2023-02-16T02:11:57.262Z,50.852436
2023-02-16T02:12:57.238Z,50.852436
2023-02-16T02:13:57.215Z,50.852436
2023-02-16T02:14:57.241Z,50.852436
2023-02-16T02:15:57.265Z,50.852436
2023-02-16T02:16:57.216Z,50.852436
2023-02-16T02:17:57.196Z,50.852436
2023-02-16T02:18:57.206Z,50.852436
2023-02-16T02:19:57.201Z,50.852436
2023-02-16T02:20:57.175Z,50.852436
2023-02-16T02:21:57.184Z,50.852436
2023-02-16T02:22:57.168Z,50.852436
2023-02-16T02:23:57.155Z,50.852436
2023-02-16T02:24:57.158Z,50.852436
2023-02-16T02:25:57.169Z,50.852436
2023-02-16T02:26:57.136Z,50.852436
2023-02-16T02:27:57.132Z,50.852436
2023-02-16T02:28:57.122Z,50.852436
2023-02-16T02:29:57.167Z,50.852436
2023-02-16T02:30:57.121Z,50.852436
2023-02-16T02:31:57.243Z,50.852436
2023-02-16T02:32:57.106Z,50.852436
2023-02-16T02:33:57.094Z,50.852436
2023-02-16T02:34:57.086Z,50.852436
2023-02-16T02:35:57.097Z,50.852436
2023-02-16T02:36:57.079Z,50.852436
2023-02-16T02:37:57.087Z,50.852436
2023-02-16T02:38:57.087Z,50.852436
2023-02-16T02:39:57.057Z,50.852436
2023-02-16T02:40:57.052Z,50.852436
2023-02-16T02:41:57.056Z,50.852436
2023-02-16T02:42:57.054Z,50.852436
2023-02-16T02:43:57.041Z,50.852436
2023-02-16T02:44:57.053Z,50.852436
2023-02-16T02:45:57.026Z,50.852436
2023-02-16T02:46:57.131Z,50.852436
2023-02-16T02:47:57.015Z,50.852436
2023-02-16T02:48:57.019Z,50.852436
2023-02-16T02:49:57.016Z,50.852436
2023-02-16T02:50:56.996Z,50.852436
2023-02-16T02:51:57.008Z,50.852436
2023-02-16T02:52:56.988Z,50.852436
2023-02-16T02:53:56.985Z,50.852436
2023-02-16T02:54:56.982Z,50.852436
2023-02-16T02:55:56.986Z,50.852436
2023-02-16T02:56:56.981Z,50.852524
2023-02-16T02:57:56.952Z,50.852749
2023-02-16T02:58:56.946Z,50.852783
2023-02-16T02:59:56.940Z,50.852829
2023-02-16T03:00:57.013Z,50.852787
2023-02-16T03:01:56.948Z,50.852726
2023-02-16T03:02:56.924Z,50.852825
2023-02-16T03:03:56.936Z,50.852844
2023-02-16T03:04:56.909Z,50.852741
2023-02-16T03:05:56.905Z,50.852722
2023-02-16T03:06:56.919Z,50.852829
2023-02-16T03:07:56.889Z,50.852764
2023-02-16T03:08:56.899Z,50.852760
2023-02-16T03:09:56.884Z,50.852829
2023-02-16T03:10:56.873Z,50.852962
2023-02-16T03:11:56.890Z,50.852924
2023-02-16T03:12:56.868Z,50.852787
2023-02-16T03:13:56.877Z,50.852722
2023-02-16T03:14:56.846Z,50.852821
2023-02-16T03:15:56.844Z,50.852795
2023-02-16T03:16:56.833Z,50.852730
2023-02-16T03:17:56.829Z,50.852730
2023-02-16T03:18:56.827Z,50.852741
2023-02-16T03:19:56.836Z,50.852730
2023-02-16T03:20:56.812Z,50.852737
2023-02-16T03:21:56.805Z,50.852787
2023-02-16T03:22:56.797Z,50.852802
2023-02-16T03:23:56.809Z,50.852745
2023-02-16T03:24:56.799Z,50.852825
2023-02-16T03:25:56.775Z,50.852848
2023-02-16T03:26:56.776Z,50.852962
2023-02-16T03:27:56.760Z,50.852863
2023-02-16T03:28:56.746Z,50.852821
2023-02-16T03:29:56.840Z,50.852772
2023-02-16T03:30:56.812Z,50.852844
2023-02-16T03:31:56.809Z,50.852776
2023-02-16T03:32:56.732Z,50.852699
2023-02-16T03:33:56.732Z,50.852737
2023-02-16T03:34:56.731Z,50.852753
2023-02-16T03:35:56.727Z,50.852791
2023-02-16T03:36:56.703Z,50.852802
2023-02-16T03:37:56.699Z,50.852818
2023-02-16T03:38:56.696Z,50.852726
2023-02-16T03:39:56.702Z,50.852776
2023-02-16T03:40:56.683Z,50.852753
2023-02-16T03:41:56.677Z,50.852726
2023-02-16T03:42:56.673Z,50.852779
2023-02-16T03:43:56.655Z,50.852776
2023-02-16T03:44:56.655Z,50.852783
2023-02-16T03:45:56.711Z,50.852753
2023-02-16T03:46:56.638Z,50.852768
2023-02-16T03:47:56.646Z,50.852802
2023-02-16T03:48:56.626Z,50.852779
2023-02-16T03:49:56.619Z,50.852947
2023-02-16T03:50:56.626Z,50.852917
2023-02-16T03:51:56.627Z,50.852917
2023-02-16T03:52:56.622Z,50.852856
2023-02-16T03:53:56.594Z,50.852821
2023-02-16T03:54:56.597Z,50.852753
2023-02-16T03:55:56.594Z,50.852715
2023-02-16T03:56:56.593Z,50.852802
2023-02-16T03:57:56.580Z,50.852737
2023-02-16T03:58:56.577Z,50.852760
2023-02-16T03:59:59.203Z,50.852703
2023-02-16T04:00:56.570Z,50.852833
2023-02-16T04:01:56.647Z,50.852905
2023-02-16T04:02:56.550Z,50.852913
2023-02-16T04:03:56.590Z,50.853260
2023-02-16T04:04:56.568Z,50.852913
2023-02-16T04:05:56.535Z,50.852757
2023-02-16T04:06:56.529Z,50.852688
2023-02-16T04:07:56.532Z,50.852699
2023-02-16T04:08:56.519Z,50.852581
2023-02-16T04:09:56.506Z,50.852768
2023-02-16T04:10:56.516Z,50.852837
2023-02-16T04:11:56.501Z,50.852749
2023-02-16T04:12:56.497Z,50.852749
2023-02-16T04:13:56.484Z,50.852749
2023-02-16T04:14:56.479Z,50.852749
2023-02-16T04:15:56.471Z,50.852749
2023-02-16T04:16:56.479Z,50.852749
2023-02-16T04:17:56.472Z,50.852749
2023-02-16T04:18:56.458Z,50.852749
2023-02-16T04:19:56.449Z,50.852749
2023-02-16T04:20:56.437Z,50.852749
2023-02-16T04:21:56.435Z,50.852749
2023-02-16T04:22:56.455Z,50.852749
2023-02-16T04:23:56.415Z,50.852749
2023-02-16T04:24:56.411Z,50.852749
2023-02-16T04:25:56.416Z,50.852749
2023-02-16T04:26:56.403Z,50.852749
2023-02-16T04:27:56.392Z,50.852749
2023-02-16T04:28:56.387Z,50.852749
2023-02-16T04:29:56.416Z,50.852734
2023-02-16T04:30:56.486Z,50.852951
2023-02-16T04:31:56.537Z,50.852821
2023-02-16T04:32:56.377Z,50.852798
2023-02-16T04:33:56.351Z,50.852554
2023-02-16T04:34:56.361Z,50.852642
2023-02-16T04:35:56.351Z,50.852722
2023-02-16T04:36:56.334Z,50.852634
2023-02-16T04:37:56.332Z,50.852669
2023-02-16T04:38:56.327Z,50.852566
2023-02-16T04:39:56.310Z,50.852646
2023-02-16T04:40:56.320Z,50.852657
2023-02-16T04:41:56.305Z,50.852669
2023-02-16T04:42:56.295Z,50.852657
2023-02-16T04:43:56.285Z,50.852657
2023-02-16T04:44:56.286Z,50.852871
2023-02-16T04:45:56.277Z,50.852859
2023-02-16T04:46:56.286Z,50.852695
2023-02-16T04:47:56.255Z,50.852688
2023-02-16T04:48:56.253Z,50.852894
2023-02-16T04:49:56.256Z,50.852814
2023-02-16T04:50:56.244Z,50.852695
2023-02-16T04:51:56.235Z,50.852856
2023-02-16T04:52:56.252Z,50.852642
2023-02-16T04:53:56.281Z,50.852730
2023-02-16T04:54:56.247Z,50.852680
2023-02-16T04:55:56.209Z,50.852993
2023-02-16T04:56:56.218Z,50.852779
2023-02-16T04:57:56.202Z,50.852745
2023-02-16T04:58:56.198Z,50.853012
2023-02-16T04:59:56.196Z,50.852509
2023-02-16T05:00:56.207Z,50.853092
2023-02-16T05:01:56.261Z,50.853371
2023-02-16T05:02:56.174Z,50.853413
2023-02-16T05:03:56.162Z,50.853218
2023-02-16T05:04:56.158Z,50.853115
2023-02-16T05:05:56.170Z,50.853085
2023-02-16T05:06:56.162Z,50.852982
2023-02-16T05:07:56.160Z,50.853127
2023-02-16T05:08:56.125Z,50.853134
2023-02-16T05:09:56.119Z,50.853043
2023-02-16T05:10:56.123Z,50.853012
2023-02-16T05:11:56.133Z,50.853306
2023-02-16T05:12:56.104Z,50.853481
2023-02-16T05:13:56.102Z,50.853474
2023-02-16T05:14:56.089Z,50.853508
2023-02-16T05:15:56.135Z,50.853535
2023-02-16T05:16:56.079Z,50.853458
2023-02-16T05:17:56.098Z,50.853645
2023-02-16T05:18:58.633Z,50.853714
2023-02-16T05:19:56.062Z,50.853653
2023-02-16T05:20:56.060Z,50.853455
2023-02-16T05:21:56.065Z,50.853123
2023-02-16T05:22:56.043Z,50.852989
2023-02-16T05:23:56.057Z,50.852844
2023-02-16T05:24:56.036Z,50.852699
2023-02-16T05:25:56.025Z,50.852329
2023-02-16T05:26:56.027Z,50.852345
2023-02-16T05:27:56.066Z,50.852291
2023-02-16T05:28:56.027Z,50.852211
2023-02-16T05:29:56.040Z,50.852337
2023-02-16T05:30:56.056Z,50.852337
2023-02-16T05:31:56.109Z,50.852394
2023-02-16T05:32:55.996Z,50.852364
2023-02-16T05:33:55.992Z,50.852489
2023-02-16T05:34:55.975Z,50.852444
2023-02-16T05:35:55.964Z,50.852493
2023-02-16T05:36:55.957Z,50.852551
2023-02-16T05:37:55.958Z,50.852493
2023-02-16T05:38:55.943Z,50.852497
2023-02-16T05:39:55.973Z,50.852314
2023-02-16T05:40:55.939Z,50.852375
2023-02-16T05:41:55.927Z,50.852661
2023-02-16T05:42:55.925Z,50.852734
2023-02-16T05:43:55.915Z,50.852840
2023-02-16T05:44:55.910Z,50.852936
2023-02-16T05:45:55.944Z,50.852730
2023-02-16T05:46:55.895Z,50.852787
2023-02-16T05:47:55.896Z,50.852791
2023-02-16T05:48:55.888Z,50.852806
2023-02-16T05:49:55.897Z,50.852894
2023-02-16T05:50:55.901Z,50.852768
2023-02-16T05:51:55.864Z,50.852676
2023-02-16T05:52:55.866Z,50.852848
2023-02-16T05:53:55.858Z,50.852837
2023-02-16T05:54:55.850Z,50.852699
2023-02-16T05:55:55.848Z,50.852787
2023-02-16T05:56:55.868Z,50.852737
2023-02-16T05:57:55.827Z,50.852871
2023-02-16T05:58:55.839Z,50.852806
2023-02-16T05:59:55.818Z,50.852757
2023-02-16T06:00:55.821Z,50.852654
2023-02-16T06:01:55.829Z,50.852829
2023-02-16T06:02:55.864Z,50.852802
2023-02-16T06:03:55.829Z,50.852791
2023-02-16T06:04:55.790Z,50.852680
2023-02-16T06:05:55.786Z,50.852478
2023-02-16T06:06:55.775Z,50.852238
2023-02-16T06:07:55.796Z,50.852207
2023-02-16T06:08:55.758Z,50.852470
2023-02-16T06:09:55.794Z,50.852448
2023-02-16T06:10:55.751Z,50.852543
2023-02-16T06:11:55.742Z,50.852600
2023-02-16T06:12:55.758Z,50.852581
2023-02-16T06:13:55.750Z,50.852795
2023-02-16T06:14:55.755Z,50.852814
2023-02-16T06:15:55.786Z,50.852802
2023-02-16T06:16:55.711Z,50.852737
2023-02-16T06:17:55.704Z,50.853077
2023-02-16T06:18:55.707Z,50.853172
2023-02-16T06:19:55.706Z,50.853172
2023-02-16T06:20:55.710Z,50.853172
2023-02-16T06:21:55.686Z,50.853172
2023-02-16T06:22:55.682Z,50.852592
2023-02-16T06:23:55.678Z,50.852592
2023-02-16T06:24:55.684Z,50.852592
2023-02-16T06:25:55.652Z,50.852592
2023-02-16T06:26:55.655Z,50.852592
2023-02-16T06:27:55.674Z,50.852592
2023-02-16T06:28:55.640Z,50.852592
2023-02-16T06:29:55.663Z,50.852592
2023-02-16T06:30:55.662Z,50.852592
2023-02-16T06:31:55.705Z,50.852592
2023-02-16T06:32:55.616Z,50.852592
2023-02-16T06:33:55.626Z,50.852592
2023-02-16T06:34:55.618Z,50.852592
2023-02-16T06:35:55.590Z,50.852592
2023-02-16T06:36:55.607Z,50.852592
2023-02-16T06:37:55.580Z,50.852592
2023-02-16T06:38:55.582Z,50.852592
2023-02-16T06:39:55.574Z,50.852592
2023-02-16T06:40:55.569Z,50.852592
2023-02-16T06:41:55.585Z,50.852592
2023-02-16T06:42:55.551Z,50.852592
2023-02-16T06:43:55.542Z,50.852592
2023-02-16T06:44:55.534Z,50.852592
2023-02-16T06:45:55.541Z,50.852592
2023-02-16T06:46:55.678Z,50.852592
2023-02-16T06:47:55.535Z,50.852592
2023-02-16T06:48:55.513Z,50.852592
2023-02-16T06:49:55.504Z,50.852592
2023-02-16T06:50:55.513Z,50.852592
2023-02-16T06:51:55.517Z,50.852592
2023-02-16T06:52:55.487Z,50.852592
2023-02-16T06:53:55.494Z,50.852592
2023-02-16T06:54:55.485Z,50.852592
2023-02-16T06:55:55.458Z,50.852592
2023-02-16T06:56:55.475Z,50.852592
2023-02-16T06:57:55.447Z,50.852592
2023-02-16T06:58:55.450Z,50.852592
2023-02-16T06:59:55.443Z,50.852592
2023-02-16T07:00:55.521Z,50.852592
2023-02-16T07:01:55.451Z,50.852592
2023-02-16T07:02:55.431Z,50.852592
2023-02-16T07:03:55.415Z,50.852592
2023-02-16T07:04:55.417Z,50.852592
2023-02-16T07:05:55.427Z,50.852592
2023-02-16T07:06:55.410Z,50.852592
2023-02-16T07:07:55.396Z,50.852592
2023-02-16T07:08:55.431Z,50.852592
2023-02-16T07:09:55.389Z,50.852592
2023-02-16T07:10:55.379Z,50.852592
2023-02-16T07:11:55.370Z,50.852592
2023-02-16T07:12:55.377Z,50.852592
2023-02-16T07:13:55.411Z,50.852592
2023-02-16T07:14:55.357Z,50.852592
2023-02-16T07:15:55.366Z,50.852592
2023-02-16T07:16:55.352Z,50.852592
2023-02-16T07:17:55.336Z,50.852592
2023-02-16T07:18:55.344Z,50.852592
2023-02-16T07:19:55.326Z,50.852592
2023-02-16T07:20:55.314Z,50.852592
2023-02-16T07:21:55.306Z,50.852592
2023-02-16T07:22:55.307Z,50.852592
2023-02-16T07:23:55.316Z,50.852592
2023-02-16T07:24:55.303Z,50.852592
2023-02-16T07:25:55.287Z,50.852592
2023-02-16T07:26:55.289Z,50.852592
2023-02-16T07:27:55.273Z,50.852592
2023-02-16T07:28:55.269Z,50.852592
2023-02-16T07:29:55.303Z,50.852592
2023-02-16T07:30:55.298Z,50.852592
2023-02-16T07:31:55.352Z,50.852592
2023-02-16T07:32:55.250Z,50.852592
2023-02-16T07:33:55.256Z,50.852592
2023-02-16T07:34:55.236Z,50.852592
2023-02-16T07:35:55.229Z,50.852592
2023-02-16T07:36:55.218Z,50.852592
2023-02-16T07:37:55.218Z,50.852592
2023-02-16T07:38:55.209Z,50.852592
2023-02-16T07:39:55.211Z,50.852592
2023-02-16T07:40:55.202Z,50.852592
2023-02-16T07:41:55.200Z,50.852592
2023-02-16T07:42:55.167Z,50.852592
2023-02-16T07:43:55.168Z,50.852592
2023-02-16T07:44:55.183Z,50.852592
2023-02-16T07:45:55.268Z,50.852592
2023-02-16T07:46:55.161Z,50.852592
2023-02-16T07:47:55.163Z,50.852592
2023-02-16T07:48:55.141Z,50.852592
2023-02-16T07:49:55.136Z,50.852592
2023-02-16T07:50:55.114Z,50.852592
2023-02-16T07:51:55.100Z,50.852592
2023-02-16T07:52:55.127Z,50.852592
2023-02-16T07:53:55.090Z,50.852592
2023-02-16T07:54:55.089Z,50.852592
2023-02-16T07:55:55.088Z,50.852592
2023-02-16T07:56:55.076Z,50.852592
2023-02-16T07:57:55.062Z,50.852592
2023-02-16T07:58:55.085Z,50.852592
2023-02-16T07:59:55.054Z,50.852592
2023-02-16T08:00:55.054Z,50.852592
2023-02-16T08:01:55.239Z,50.852592
2023-02-16T08:02:55.233Z,50.852592
2023-02-16T08:03:55.025Z,50.852592
2023-02-16T08:04:55.052Z,50.852592
2023-02-16T08:05:55.030Z,50.852592
2023-02-16T08:06:55.007Z,50.852592
2023-02-16T08:07:55.028Z,50.852592
2023-02-16T08:08:55.003Z,50.852932
2023-02-16T08:09:55.001Z,50.852718
2023-02-16T08:10:54.982Z,50.852608
2023-02-16T08:11:54.977Z,50.852795
2023-02-16T08:12:54.980Z,50.852795
2023-02-16T08:13:54.982Z,50.852604
2023-02-16T08:14:54.984Z,50.852604
2023-02-16T08:15:54.967Z,50.852604
2023-02-16T08:16:56.705Z,50.852604
2023-02-16T08:17:54.953Z,50.852604
2023-02-16T08:18:54.937Z,50.852604
2023-02-16T08:19:54.919Z,50.852852
2023-02-16T08:21:04.285Z,50.852932
2023-02-16T08:21:55.917Z,50.852814
2023-02-16T08:22:54.935Z,50.852783
2023-02-16T08:23:54.901Z,50.852772
2023-02-16T08:24:54.897Z,50.852833
2023-02-16T08:25:54.884Z,50.852772
2023-02-16T08:26:54.880Z,50.852757
2023-02-16T08:27:54.876Z,50.852737
2023-02-16T08:28:54.901Z,50.852776
2023-02-16T08:29:54.947Z,50.852787
2023-02-16T08:30:54.904Z,50.852867
2023-02-16T08:31:54.900Z,50.852791
2023-02-16T08:32:54.844Z,50.852821
2023-02-16T08:33:54.836Z,50.852776
2023-02-16T08:34:54.841Z,50.852852
2023-02-16T08:35:54.829Z,50.852745
2023-02-16T08:36:54.848Z,50.852726
2023-02-16T08:37:54.834Z,50.852753
2023-02-16T08:38:54.825Z,50.852798
2023-02-16T08:39:54.801Z,50.852688
2023-02-16T08:40:54.799Z,50.852596
2023-02-16T08:41:54.803Z,50.852661
2023-02-16T08:42:54.804Z,50.852676
2023-02-16T08:43:54.797Z,50.852676
2023-02-16T08:44:54.795Z,50.852749
2023-02-16T08:45:54.781Z,50.852722
2023-02-16T08:46:54.765Z,50.852741
2023-02-16T08:47:54.763Z,50.852802
2023-02-16T08:48:55.949Z,50.852802
2023-02-16T08:49:54.740Z,50.852707
2023-02-16T08:50:54.733Z,50.852707
2023-02-16T08:51:54.893Z,50.852695
2023-02-16T08:52:54.712Z,50.852772
2023-02-16T08:53:54.733Z,50.852779
2023-02-16T08:54:54.703Z,50.852726
2023-02-16T08:55:54.695Z,50.852806
2023-02-16T08:56:54.708Z,50.852810
2023-02-16T08:57:54.705Z,50.852795
2023-02-16T08:58:54.682Z,50.852833
2023-02-16T08:59:54.682Z,50.852768
2023-02-16T09:00:54.753Z,50.852654
2023-02-16T09:01:54.669Z,50.852680
2023-02-16T09:02:54.672Z,50.852779
2023-02-16T09:03:54.653Z,50.852787
2023-02-16T09:04:54.647Z,50.852798
2023-02-16T09:05:54.635Z,50.852745
2023-02-16T09:06:54.643Z,50.852779
2023-02-16T09:07:54.653Z,50.852726
2023-02-16T09:08:54.650Z,50.852764
2023-02-16T09:09:54.648Z,50.852768
2023-02-16T09:10:54.618Z,50.852787
2023-02-16T09:11:54.614Z,50.852783
2023-02-16T09:12:54.618Z,50.852760
2023-02-16T09:13:54.607Z,50.852730
2023-02-16T09:14:54.613Z,50.852768
2023-02-16T09:15:54.586Z,50.852764
2023-02-16T09:16:54.639Z,50.852749
2023-02-16T09:17:54.576Z,50.852711
2023-02-16T09:18:54.573Z,50.852783
2023-02-16T09:19:54.582Z,50.852821
2023-02-16T09:20:54.563Z,50.852894
2023-02-16T09:21:54.574Z,50.852905
2023-02-16T09:22:54.565Z,50.852776
2023-02-16T09:23:54.550Z,50.852757
2023-02-16T09:24:54.533Z,50.852776
2023-02-16T09:25:54.529Z,50.852795
2023-02-16T09:26:54.522Z,50.852791
2023-02-16T09:27:54.538Z,50.852776
2023-02-16T09:28:54.512Z,50.852798
2023-02-16T09:29:54.541Z,50.852776
2023-02-16T09:30:54.564Z,50.852757
2023-02-16T09:31:54.574Z,50.852726
2023-02-16T09:32:54.492Z,50.852707
2023-02-16T09:33:54.492Z,50.852760
2023-02-16T09:34:54.486Z,50.852768
2023-02-16T09:35:54.473Z,50.852741
2023-02-16T09:36:54.493Z,50.852699
2023-02-16T09:37:54.455Z,50.852734
2023-02-16T09:38:54.475Z,50.852798
2023-02-16T09:39:54.464Z,50.852768
2023-02-16T09:40:54.440Z,50.852680
2023-02-16T09:41:54.439Z,50.852730
2023-02-16T09:42:54.451Z,50.852776
2023-02-16T09:43:54.420Z,50.852764
2023-02-16T09:44:54.414Z,50.852703
2023-02-16T09:45:54.425Z,50.852673
2023-02-16T09:46:54.407Z,50.852669
2023-02-16T09:47:54.416Z,50.852734
2023-02-16T09:48:54.415Z,50.852734
2023-02-16T09:49:54.403Z,50.852680
2023-02-16T09:50:54.999Z,50.852673
2023-02-16T09:51:54.390Z,50.852722
2023-02-16T09:52:54.375Z,50.852783
2023-02-16T09:53:54.430Z,50.852734
2023-02-16T09:54:54.393Z,50.852737
2023-02-16T09:55:54.359Z,50.852798
2023-02-16T09:56:54.384Z,50.852676
2023-02-16T09:57:54.346Z,50.852695
2023-02-16T09:58:54.341Z,50.852604
2023-02-16T09:59:54.332Z,50.852684
2023-02-16T10:00:54.362Z,50.852627
2023-02-16T10:01:54.315Z,50.852627
2023-02-16T10:02:54.325Z,50.852692
2023-02-16T10:03:54.312Z,50.852768
2023-02-16T10:04:54.309Z,50.852715
2023-02-16T10:05:54.297Z,50.852760
2023-02-16T10:06:54.310Z,50.852726
2023-02-16T10:07:54.287Z,50.852703
2023-02-16T10:08:54.288Z,50.852821
2023-02-16T10:09:54.283Z,50.852699
2023-02-16T10:10:54.285Z,50.852676
2023-02-16T10:11:54.275Z,50.852634
2023-02-16T10:12:54.272Z,50.852722
2023-02-16T10:13:54.274Z,50.852604
2023-02-16T10:14:54.254Z,50.852688
2023-02-16T10:15:54.328Z,50.852695
2023-02-16T10:16:54.260Z,50.852734
2023-02-16T10:17:54.229Z,50.852760
2023-02-16T10:18:54.255Z,50.852665
2023-02-16T10:19:54.206Z,50.852734
2023-02-16T10:20:54.227Z,50.852657
2023-02-16T10:21:54.216Z,50.852669
2023-02-16T10:22:54.201Z,50.852673
2023-02-16T10:23:54.207Z,50.852695
2023-02-16T10:24:54.211Z,50.852734
2023-02-16T10:25:54.167Z,50.852634
2023-02-16T10:26:54.180Z,50.852680
2023-02-16T10:27:54.161Z,50.852745
2023-02-16T10:28:54.153Z,50.852779
2023-02-16T10:29:54.206Z,50.852806
2023-02-16T10:30:54.244Z,50.852795
2023-02-16T10:31:54.243Z,50.852688
2023-02-16T10:33:01.145Z,50.852707
2023-02-16T10:33:54.133Z,50.852764
2023-02-16T10:34:54.152Z,50.852673
2023-02-16T10:35:54.118Z,50.852680
2023-02-16T10:36:54.107Z,50.852669
2023-02-16T10:37:54.109Z,50.852650
2023-02-16T10:38:54.128Z,50.852600
2023-02-16T10:39:54.101Z,50.852657
2023-02-16T10:40:54.102Z,50.852688
2023-02-16T10:41:54.079Z,50.852692
2023-02-16T10:42:54.104Z,50.852654
2023-02-16T10:43:54.064Z,50.852673
2023-02-16T10:44:54.059Z,50.852642
2023-02-16T10:45:54.050Z,50.852707
2023-02-16T10:46:54.067Z,50.852779
2023-02-16T10:47:54.056Z,50.852726
2023-02-16T10:48:54.043Z,50.852707
2023-02-16T10:49:54.031Z,50.852726
2023-02-16T10:50:54.015Z,50.852669
2023-02-16T10:51:54.041Z,50.852703
2023-02-16T10:52:54.017Z,50.852741
2023-02-16T10:53:53.997Z,50.852638
2023-02-16T10:54:53.997Z,50.852734
2023-02-16T10:55:53.984Z,50.852661
2023-02-16T10:56:53.995Z,50.852665
2023-02-16T10:57:53.986Z,50.852711
2023-02-16T10:58:53.959Z,50.852718
2023-02-16T10:59:53.959Z,50.852741
2023-02-16T11:00:53.948Z,50.852757
2023-02-16T11:01:54.027Z,50.852669
2023-02-16T11:02:53.937Z,50.852760
2023-02-16T11:03:53.945Z,50.852692
2023-02-16T11:04:53.920Z,50.852676
2023-02-16T11:05:53.914Z,50.852798
2023-02-16T11:06:53.907Z,50.852753
2023-02-16T11:07:53.893Z,50.852722
2023-02-16T11:08:53.898Z,50.852757
2023-02-16T11:09:53.904Z,50.852615
2023-02-16T11:10:53.897Z,50.852692
2023-02-16T11:11:53.870Z,50.852699
2023-02-16T11:12:53.892Z,50.852707
2023-02-16T11:13:53.858Z,50.852753
2023-02-16T11:14:53.859Z,50.852730
2023-02-16T11:15:53.852Z,50.852741
2023-02-16T11:16:53.858Z,50.852734
2023-02-16T11:17:53.841Z,50.852726
2023-02-16T11:18:53.849Z,50.852779
2023-02-16T11:19:53.824Z,50.852806
2023-02-16T11:20:53.830Z,50.852795
2023-02-16T11:21:53.911Z,50.852802
2023-02-16T11:22:53.830Z,50.852787
2023-02-16T11:23:53.810Z,50.852776
2023-02-16T11:24:53.825Z,50.852825